createdAt,value
2022-12-08T00:01:12.318Z,95.96
2022-12-08T00:04:14.150Z,95.43
2022-12-08T00:07:34.188Z,95.86
2022-12-08T00:10:51.085Z,95.32
2022-12-08T00:13:52.603Z,96.01
2022-12-08T00:16:54.988Z,95.53
2022-12-08T00:19:56.607Z,95.49
2022-12-08T00:22:58.107Z,95.79
2022-12-08T00:26:06.934Z,95.83
2022-12-08T00:29:13.082Z,95.86
2022-12-08T00:32:17.472Z,95.53
2022-12-08T00:35:19.037Z,95.31
2022-12-08T00:38:20.558Z,95.95
2022-12-08T00:41:43.850Z,95.37
2022-12-08T00:44:46.127Z,95.90
2022-12-08T00:47:47.626Z,95.73
2022-12-08T00:50:49.150Z,95.74
2022-12-08T00:53:50.713Z,95.32
2022-12-08T00:56:52.438Z,95.71
2022-12-08T00:59:53.933Z,95.46
2022-12-08T01:02:55.485Z,96.06
2022-12-08T01:05:57.137Z,95.40
2022-12-08T01:08:58.907Z,96.31
2022-12-08T01:12:00.475Z,95.71
2022-12-08T01:15:02.686Z,95.91
2022-12-08T01:18:04.577Z,95.82
2022-12-08T01:21:07.591Z,96.10
2022-12-08T01:24:20.871Z,96.54
2022-12-08T01:27:22.420Z,95.90
2022-12-08T01:30:23.936Z,96.19
2022-12-08T01:33:25.897Z,96.63
2022-12-08T01:36:29.945Z,96.65
2022-12-08T01:39:31.456Z,96.25
2022-12-08T01:42:34.493Z,96.39
2022-12-08T01:45:36.065Z,96.82
2022-12-08T01:48:37.771Z,96.57
2022-12-08T01:51:47.388Z,95.97
2022-12-08T01:54:53.692Z,96.67
2022-12-08T01:58:05.962Z,96.71
2022-12-08T02:01:08.105Z,96.43
2022-12-08T02:04:10.241Z,96.51
2022-12-08T02:07:13.593Z,96.84
2022-12-08T02:10:19.455Z,96.25
2022-12-08T02:13:22.425Z,96.36
2022-12-08T02:16:37.323Z,96.40
2022-12-08T02:20:22.930Z,96.34
2022-12-08T02:23:37.198Z,96.63
2022-12-08T02:26:53.812Z,96.88
2022-12-08T02:30:16.228Z,96.73
2022-12-08T02:33:26.580Z,96.56
2022-12-08T02:36:58.682Z,96.49
2022-12-08T02:40:14.277Z,96.79
2022-12-08T02:43:26.942Z,97.10
2022-12-08T02:46:33.807Z,97.11
2022-12-08T02:49:35.632Z,96.70
2022-12-08T02:52:48.296Z,96.78
2022-12-08T02:56:16.149Z,96.30
2022-12-08T02:59:48.086Z,96.48
2022-12-08T03:03:15.365Z,96.64
2022-12-08T03:06:29.582Z,96.67
2022-12-08T03:09:36.434Z,97.38
2022-12-08T03:12:43.636Z,96.75
2022-12-08T03:15:49.081Z,97.57
2022-12-08T03:19:24.583Z,97.48
2022-12-08T03:22:27.676Z,97.23
2022-12-08T03:25:33.856Z,96.90
2022-12-08T03:28:35.589Z,97.31
2022-12-08T03:31:41.776Z,97.85
2022-12-08T03:34:47.071Z,97.41
2022-12-08T03:37:48.800Z,97.69
2022-12-08T03:41:10.680Z,97.29
2022-12-08T03:44:12.213Z,97.42
2022-12-08T03:47:13.803Z,97.51
2022-12-08T03:50:15.435Z,97.52
2022-12-08T03:54:21.059Z,97.90
2022-12-08T03:57:22.657Z,97.29
2022-12-08T04:00:24.199Z,97.46
2022-12-08T04:03:25.915Z,97.62
2022-12-08T04:06:27.483Z,97.40
2022-12-08T04:09:29.055Z,97.79
2022-12-08T04:12:31.289Z,97.67
2022-12-08T04:15:32.855Z,97.33
2022-12-08T04:18:35.480Z,97.39
2022-12-08T04:21:37.007Z,98.12
2022-12-08T04:24:38.521Z,97.99
2022-12-08T04:27:40.051Z,97.73
2022-12-08T04:30:41.711Z,97.45
2022-12-08T04:33:43.285Z,97.69
2022-12-08T04:36:44.810Z,97.82
2022-12-08T04:39:46.295Z,97.95
2022-12-08T04:42:48.061Z,97.77
2022-12-08T04:45:49.663Z,97.57
2022-12-08T04:48:51.176Z,97.68
2022-12-08T04:51:52.692Z,97.47
2022-12-08T04:54:54.223Z,97.27
2022-12-08T04:57:56.116Z,97.78
2022-12-08T05:00:57.708Z,97.42
2022-12-08T05:03:59.279Z,97.56
2022-12-08T05:07:00.862Z,97.40
2022-12-08T05:10:03.205Z,97.21
2022-12-08T05:13:05.202Z,97.75
2022-12-08T05:16:13.416Z,97.87
2022-12-08T05:19:15.804Z,97.31
2022-12-08T05:22:17.396Z,97.47
2022-12-08T05:25:18.962Z,97.18
2022-12-08T05:28:40.760Z,97.52
2022-12-08T05:31:42.156Z,97.17
2022-12-08T05:34:43.684Z,97.02
2022-12-08T05:37:45.196Z,97.07
2022-12-08T05:40:46.785Z,97.22
2022-12-08T05:43:48.950Z,96.62
2022-12-08T05:46:50.629Z,96.86
2022-12-08T05:49:52.186Z,96.22
2022-12-08T05:52:53.764Z,96.08
2022-12-08T05:55:55.432Z,95.98
2022-12-08T05:58:57.015Z,95.87
2022-12-08T06:01:58.774Z,96.10
2022-12-08T06:05:00.400Z,96.20
2022-12-08T06:08:02.048Z,96.12
2022-12-08T06:11:03.672Z,95.35
2022-12-08T06:14:05.396Z,95.65
2022-12-08T06:17:07.282Z,95.64
2022-12-08T06:20:09.528Z,96.11
2022-12-08T06:23:11.064Z,96.22
2022-12-08T06:26:15.042Z,96.83
2022-12-08T06:29:16.591Z,96.40
2022-12-08T06:32:20.795Z,96.71
2022-12-08T06:35:25.996Z,96.73
2022-12-08T06:38:28.110Z,96.69
2022-12-08T06:41:29.726Z,96.81
2022-12-08T06:44:31.239Z,97.22
2022-12-08T06:47:32.765Z,97.32
2022-12-08T06:50:35.027Z,97.49
2022-12-08T06:53:36.951Z,97.74
2022-12-08T06:56:38.497Z,97.90
2022-12-08T06:59:40.054Z,98.47
2022-12-08T07:02:42.281Z,98.40
2022-12-08T07:05:43.860Z,98.57
2022-12-08T07:08:45.409Z,98.16
2022-12-08T07:11:46.947Z,99.21
2022-12-08T07:14:48.448Z,98.95
2022-12-08T07:17:53.567Z,99.29
2022-12-08T07:21:03.509Z,99.13
2022-12-08T07:24:05.473Z,99.22
2022-12-08T07:27:07.102Z,98.84
2022-12-08T07:30:09.023Z,99.37
2022-12-08T07:33:10.551Z,99.90
2022-12-08T07:36:12.621Z,100.00
2022-12-08T07:39:14.143Z,100.00
2022-12-08T07:42:15.798Z,100.00
2022-12-08T07:45:21.288Z,100.00
2022-12-08T07:48:22.812Z,100.00
2022-12-08T07:51:25.195Z,100.00
2022-12-08T07:54:27.713Z,99.54
2022-12-08T07:57:29.264Z,99.74
2022-12-08T08:00:30.877Z,100.00
2022-12-08T08:03:33.182Z,100.00
2022-12-08T08:06:36.296Z,100.00
2022-12-08T08:09:38.017Z,100.00
2022-12-08T08:12:39.656Z,100.00
2022-12-08T08:15:41.372Z,100.00
2022-12-08T08:18:43.570Z,100.00
2022-12-08T08:21:46.342Z,100.00
2022-12-08T08:24:48.252Z,100.00
2022-12-08T08:27:50.303Z,100.00
2022-12-08T08:30:52.054Z,100.00
2022-12-08T08:33:54.013Z,100.00
2022-12-08T08:36:55.598Z,100.00
2022-12-08T08:39:57.174Z,100.00
2022-12-08T08:43:01.458Z,100.00
2022-12-08T08:46:04.590Z,100.00
2022-12-08T08:49:06.165Z,100.00
2022-12-08T08:52:07.944Z,100.00
2022-12-08T08:55:09.857Z,99.58
2022-12-08T08:58:11.459Z,99.48
2022-12-08T09:01:21.370Z,99.20
2022-12-08T09:04:23.717Z,99.29
2022-12-08T09:07:25.289Z,98.96
2022-12-08T09:10:27.340Z,98.77
2022-12-08T09:13:28.895Z,98.75
2022-12-08T09:16:30.538Z,98.64
2022-12-08T09:19:32.659Z,98.17
2022-12-08T09:22:34.482Z,98.35
2022-12-08T09:25:36.012Z,98.25
2022-12-08T09:28:38.063Z,98.26
2022-12-08T09:31:39.993Z,97.91
2022-12-08T09:34:41.653Z,98.25
2022-12-08T09:37:43.180Z,97.62
2022-12-08T09:40:50.943Z,98.07
2022-12-08T09:44:18.880Z,97.51
2022-12-08T09:47:29.391Z,97.49
2022-12-08T09:50:55.776Z,97.49
2022-12-08T09:54:07.832Z,96.68
2022-12-08T09:57:17.488Z,96.92
2022-12-08T10:00:19.162Z,97.23
2022-12-08T10:03:24.314Z,97.02
2022-12-08T10:06:41.303Z,96.30
2022-12-08T10:09:49.960Z,96.70
2022-12-08T10:13:14.168Z,96.51
2022-12-08T10:16:29.312Z,96.57
2022-12-08T10:19:34.194Z,96.66
2022-12-08T10:22:39.947Z,96.48
2022-12-08T10:25:48.741Z,96.40
2022-12-08T10:28:50.684Z,96.43
2022-12-08T10:31:52.323Z,97.18
2022-12-08T10:35:02.007Z,97.02
2022-12-08T10:38:06.355Z,96.75
2022-12-08T10:41:11.043Z,96.72
2022-12-08T10:44:12.647Z,96.67
2022-12-08T10:47:14.526Z,96.27
2022-12-08T10:50:28.526Z,95.91
2022-12-08T10:53:32.826Z,96.21
2022-12-08T10:56:34.558Z,96.37
2022-12-08T10:59:36.260Z,96.23
2022-12-08T11:02:51.670Z,95.36
2022-12-08T11:05:57.088Z,95.38
2022-12-08T11:09:01.772Z,95.06
2022-12-08T11:12:17.661Z,94.52
2022-12-08T11:15:19.495Z,94.45
2022-12-08T11:18:28.585Z,93.85
2022-12-08T11:21:36.774Z,94.03
2022-12-08T11:24:38.289Z,93.46
2022-12-08T11:27:47.178Z,93.18
2022-12-08T11:30:57.618Z,92.91
2022-12-08T11:33:59.433Z,93.53
2022-12-08T11:37:03.760Z,92.35
2022-12-08T11:40:14.445Z,92.11
2022-12-08T11:43:17.821Z,92.15
2022-12-08T11:46:24.933Z,92.29
2022-12-08T11:49:39.436Z,92.54
2022-12-08T11:52:47.448Z,91.71
2022-12-08T11:55:59.082Z,90.84
2022-12-08T11:59:15.725Z,90.74
2022-12-08T12:02:24.040Z,90.64
2022-12-08T12:06:09.300Z,91.31
2022-12-08T12:09:18.785Z,89.58
2022-12-08T12:12:39.290Z,89.39
2022-12-08T12:15:53.347Z,88.93
2022-12-08T12:19:01.424Z,89.05
2022-12-08T12:22:20.132Z,88.14
2022-12-08T12:25:24.724Z,88.27
2022-12-08T12:28:30.886Z,87.60
2022-12-08T12:31:38.356Z,86.56
2022-12-08T12:34:54.538Z,87.25
2022-12-08T12:38:00.042Z,87.42
2022-12-08T12:41:04.179Z,87.23
2022-12-08T12:44:13.209Z,87.86
2022-12-08T12:47:48.559Z,87.52
2022-12-08T12:50:55.061Z,88.25
2022-12-08T12:54:23.407Z,86.48
2022-12-08T12:57:40.256Z,86.34
2022-12-08T13:00:41.947Z,86.82
2022-12-08T13:03:47.277Z,86.52
2022-12-08T13:06:50.444Z,87.32
2022-12-08T13:10:15.339Z,87.46
2022-12-08T13:13:18.937Z,86.09
2022-12-08T13:16:24.281Z,86.89
2022-12-08T13:19:26.353Z,87.40
2022-12-08T13:22:54.207Z,86.56
2022-12-08T13:26:23.532Z,86.48
2022-12-08T13:29:26.278Z,86.74
2022-12-08T13:33:16.701Z,86.17
2022-12-08T13:36:25.807Z,86.79
2022-12-08T13:39:44.775Z,86.67
2022-12-08T13:43:05.848Z,87.20
2022-12-08T13:46:57.998Z,86.99
2022-12-08T13:57:02.716Z,87.22
2022-12-08T13:59:51.648Z,86.89
2022-12-08T14:02:58.054Z,87.10
2022-12-08T14:06:12.262Z,86.71
2022-12-08T14:09:19.274Z,86.78
2022-12-08T14:12:27.741Z,86.68
2022-12-08T14:15:37.224Z,86.48
2022-12-08T14:18:39.564Z,86.17
2022-12-08T14:21:41.121Z,86.61
2022-12-08T14:24:51.573Z,86.67
2022-12-08T14:27:59.974Z,86.14
2022-12-08T14:31:03.652Z,86.37
2022-12-08T14:34:05.236Z,86.88
2022-12-08T14:37:12.617Z,86.85
2022-12-08T14:40:34.172Z,86.66
2022-12-08T14:43:36.406Z,86.83
2022-12-08T14:46:38.357Z,87.36
2022-12-08T14:49:40.374Z,87.04
2022-12-08T14:52:45.376Z,86.94
2022-12-08T14:55:48.706Z,87.00
2022-12-08T14:59:03.289Z,87.14
2022-12-08T15:02:19.431Z,86.85
2022-12-08T15:05:21.911Z,86.41
2022-12-08T15:08:24.059Z,87.04
2022-12-08T15:11:34.560Z,87.24
2022-12-08T15:14:40.460Z,87.32
2022-12-08T15:17:43.457Z,87.14
2022-12-08T15:21:01.886Z,87.35
2022-12-08T15:24:03.649Z,87.18
2022-12-08T15:27:05.241Z,87.13
2022-12-08T15:30:14.306Z,87.46
2022-12-08T15:33:15.956Z,87.41
2022-12-08T15:36:17.500Z,87.83
2022-12-08T15:39:35.587Z,87.41
2022-12-08T15:42:37.137Z,87.93
2022-12-08T15:45:44.760Z,87.97
2022-12-08T15:48:57.891Z,88.34
2022-12-08T15:52:10.774Z,88.59
2022-12-08T15:55:18.818Z,88.53
2022-12-08T16:01:45.324Z,89.05
2022-12-08T16:05:33.421Z,88.60
2022-12-08T16:08:44.659Z,89.04
2022-12-08T16:12:06.489Z,89.09
2022-12-08T16:18:37.007Z,89.64
2022-12-08T16:22:17.729Z,89.83
2022-12-08T16:25:14.701Z,89.98
2022-12-08T16:28:52.009Z,89.75
2022-12-08T16:31:41.225Z,90.27
2022-12-08T16:34:43.911Z,90.63
2022-12-08T16:37:45.574Z,90.91
2022-12-08T16:41:06.342Z,90.47
2022-12-08T16:44:07.917Z,90.88
2022-12-08T16:47:10.254Z,90.91
2022-12-08T16:50:32.356Z,91.30
2022-12-08T16:53:33.857Z,91.20
2022-12-08T16:56:35.782Z,90.93
2022-12-08T16:59:38.123Z,91.29
2022-12-08T17:02:39.912Z,91.57
2022-12-08T17:05:43.258Z,91.89
2022-12-08T17:08:45.216Z,91.57
2022-12-08T17:11:46.776Z,91.91
2022-12-08T17:14:48.327Z,92.10
2022-12-08T17:17:50.436Z,91.71
2022-12-08T17:20:52.001Z,91.90
2022-12-08T17:23:53.768Z,91.75
2022-12-08T17:26:57.555Z,92.25
2022-12-08T17:29:59.311Z,91.69
2022-12-08T17:33:01.312Z,91.85
2022-12-08T17:36:03.062Z,91.55
2022-12-08T17:39:06.149Z,91.81
2022-12-08T17:42:08.099Z,92.17
2022-12-08T17:45:10.255Z,92.15
2022-12-08T17:48:12.037Z,91.56
2022-12-08T17:51:13.650Z,91.78
2022-12-08T17:54:16.482Z,92.20
2022-12-08T17:57:18.017Z,92.04
2022-12-08T18:00:20.271Z,92.71
2022-12-08T18:03:21.948Z,92.63
2022-12-08T18:06:28.169Z,92.82
2022-12-08T18:09:33.685Z,92.89
2022-12-08T18:12:35.416Z,93.15
2022-12-08T18:15:39.333Z,93.38
2022-12-08T18:18:41.509Z,93.39
2022-12-08T18:21:43.195Z,93.65
2022-12-08T18:24:44.897Z,93.26
2022-12-08T18:27:46.690Z,94.23
2022-12-08T18:30:48.245Z,94.09
2022-12-08T18:33:51.183Z,94.09
2022-12-08T18:36:53.599Z,93.79
2022-12-08T18:39:55.199Z,94.24
2022-12-08T18:42:56.850Z,93.89
2022-12-08T18:46:10.131Z,94.13
2022-12-08T18:49:12.915Z,94.16
2022-12-08T18:52:14.496Z,93.85
2022-12-08T18:55:16.073Z,93.43
2022-12-08T18:58:18.598Z,93.69
2022-12-08T19:01:20.622Z,94.08
2022-12-08T19:04:29.886Z,93.73
2022-12-08T19:07:32.277Z,93.65
2022-12-08T19:10:38.181Z,93.67
2022-12-08T19:13:39.697Z,93.63
2022-12-08T19:16:41.287Z,93.35
2022-12-08T19:19:43.183Z,92.77
2022-12-08T19:22:44.823Z,93.01
2022-12-08T19:25:46.436Z,93.67
2022-12-08T19:28:48.100Z,93.42
2022-12-08T19:31:49.842Z,93.86
2022-12-08T19:35:07.811Z,94.19
2022-12-08T19:38:17.998Z,94.08
2022-12-08T19:45:17.218Z,94.19
2022-12-08T19:48:18.780Z,94.68
2022-12-08T19:51:20.405Z,95.05
2022-12-08T19:54:21.994Z,95.18
2022-12-08T19:57:23.541Z,94.99
2022-12-08T20:00:25.536Z,94.93
2022-12-08T20:03:27.114Z,95.48
2022-12-08T20:06:28.780Z,95.58
2022-12-08T20:09:30.333Z,95.37
2022-12-08T20:12:31.933Z,94.88
2022-12-08T20:15:33.560Z,95.06
2022-12-08T20:18:39.871Z,95.04
2022-12-08T20:21:41.632Z,95.01
2022-12-08T20:24:43.250Z,94.86
2022-12-08T20:27:44.824Z,95.47
2022-12-08T20:30:46.956Z,95.31
2022-12-08T20:33:48.914Z,94.92
2022-12-08T20:36:50.481Z,95.44
2022-12-08T20:39:52.645Z,94.96
2022-12-08T20:42:54.424Z,94.84
2022-12-08T20:45:56.303Z,94.68
2022-12-08T20:49:01.225Z,95.21
2022-12-08T20:52:39.592Z,95.23
2022-12-08T20:55:49.681Z,94.56
2022-12-08T21:05:51.110Z,94.90
2022-12-08T21:08:53.573Z,95.00
2022-12-08T21:11:55.553Z,95.05
2022-12-08T21:14:57.150Z,94.73
2022-12-08T21:17:59.141Z,94.88
2022-12-08T21:21:04.608Z,94.77
2022-12-08T21:24:06.909Z,94.47
2022-12-08T21:27:09.311Z,94.67
2022-12-08T21:30:11.821Z,95.24
2022-12-08T21:33:13.933Z,95.79
2022-12-08T21:36:18.746Z,96.34
2022-12-08T21:39:20.443Z,95.98
2022-12-08T21:42:40.632Z,96.53
2022-12-08T21:45:42.343Z,96.30
2022-12-08T21:48:44.000Z,96.38
2022-12-08T21:51:45.948Z,96.70
2022-12-08T21:54:47.693Z,96.67
2022-12-08T21:57:49.295Z,96.38
2022-12-08T22:00:51.005Z,96.50
2022-12-08T22:03:52.797Z,96.66
2022-12-08T22:06:54.502Z,97.54
2022-12-08T22:09:56.248Z,96.94
2022-12-08T22:12:57.875Z,97.45
2022-12-08T22:16:02.144Z,97.11
2022-12-08T22:19:03.852Z,97.19
2022-12-08T22:22:05.942Z,96.95
2022-12-08T22:25:11.875Z,97.01
2022-12-08T22:28:13.742Z,96.79
2022-12-08T22:31:19.499Z,96.98
2022-12-08T22:34:21.262Z,97.03
2022-12-08T22:37:22.893Z,97.47
2022-12-08T22:40:24.646Z,96.88
2022-12-08T22:43:26.532Z,96.92
2022-12-08T22:46:28.299Z,97.50
2022-12-08T22:49:31.677Z,97.37
2022-12-08T22:52:33.580Z,97.71
2022-12-08T22:55:35.339Z,97.83
2022-12-08T22:58:38.712Z,97.52
2022-12-08T23:01:40.294Z,97.35
2022-12-08T23:04:42.006Z,97.82
2022-12-08T23:07:44.009Z,97.65
2022-12-08T23:10:47.145Z,98.24
2022-12-08T23:13:49.032Z,97.89
2022-12-08T23:16:50.690Z,98.00
2022-12-08T23:19:52.337Z,98.20
2022-12-08T23:22:53.946Z,98.78
2022-12-08T23:25:55.627Z,98.74
2022-12-08T23:28:57.805Z,98.03
2022-12-08T23:32:00.030Z,98.38
2022-12-08T23:35:01.743Z,98.74
2022-12-08T23:38:03.768Z,98.30
2022-12-08T23:41:07.837Z,98.20
2022-12-08T23:44:11.920Z,98.37
2022-12-08T23:47:13.613Z,98.64
2022-12-08T23:50:15.427Z,98.85
2022-12-08T23:53:17.190Z,98.82
2022-12-08T23:56:19.894Z,98.73
2022-12-08T23:59:23.173Z,98.26
